Stella Prima — PHEA — position and weather

sailwx.info

Track history (hours):
 
Tides and Currents Weather Stations Pressure Air Temp Water Temp Dewpoint Dewpoint Depression Visibility Wind Speed Wind Dir Waves Ship Positions

Stella Prima

Last reported at 2017-Mar-01 17:04 UTC. Time now 2017-Mar-25 13:43 UTC.
Position N 27°17' W 015°25'.
Warning: this ship's position is 23 days out of date.

Length 100 m; beam 21 m.

Type: Cargo ship. MMSI: 246460000.

Date/timePositionNaut miles runAvg speedWind from/ knotsBaromVisibWave heightAir tempDewpointWater temp
2017-Mar-01 17:04N 27°17' W 015°25'2114.0
2017-Mar-01 15:33N 27°38' W 015°19'1413.6
2017-Mar-01 14:33N 27°51' W 015°15'1312.8
2017-Mar-01 13:33N 28°03' W 015°21'7 6.8
2017-Mar-01 12:33N 28°09' W 015°25'0 0.0
2017-Mar-01 11:33N 28°09' W 015°25'0 0.0
2017-Mar-01 10:33N 28°09' W 015°25'0 0.0
2017-Mar-01 09:33N 28°09' W 015°25'0 0.0
2017-Mar-01 08:34N 28°09' W 015°25'0 0.0
2017-Mar-01 07:33N 28°09' W 015°25'0 0.0
2017-Mar-01 06:33N 28°09' W 015°25'0 0.0
2017-Mar-01 05:33N 28°09' W 015°25'0 0.0
2017-Mar-01 04:33N 28°09' W 015°25'0 0.0
2017-Mar-01 03:33N 28°09' W 015°25'0 0.0
2017-Mar-01 02:33N 28°09' W 015°25'0 0.0
2017-Mar-01 01:33N 28°09' W 015°25'0 0.0
2017-Mar-01 00:34N 28°09' W 015°25'0 0.0
2017-Feb-28 23:34N 28°09' W 015°25'0 0.0
2017-Feb-28 22:33N 28°09' W 015°25'0 0.0
2017-Feb-28 21:33N 28°09' W 015°25'0 0.0
2017-Feb-28 20:33N 28°09' W 015°25'0 0.1
2017-Feb-28 19:34N 28°09' W 015°25'2 2.3
2017-Feb-28 18:34N 28°08' W 015°23'7 7.4
2017-Feb-28 17:33N 28°15' W 015°20'1313.5
2017-Feb-28 16:33N 28°28' W 015°17'1413.6
2017-Feb-28 15:33N 28°41' W 015°13'1413.7
2017-Feb-28 14:32N 28°55' W 015°09'5913.5
2017-Feb-28 10:10N 29°52' W 014°52'  
2017-Feb-24 05:04N 49°46' W 003°25'510.0
2017-Feb-24 04:33N 49°49' W 003°19'1110.4
2017-Feb-24 03:32N 49°54' W 003°05'1110.9
2017-Feb-24 02:33N 49°59' W 002°50'69 9.2
2017-Feb-23 19:06N 49°41' W 001°07'5 9.5
2017-Feb-23 18:33N 49°37' W 001°01'2 0.4
2017-Feb-23 13:19N 49°36' W 000°59'0 0.1
2017-Feb-23 12:28N 49°36' W 000°59'0 0.0
2017-Feb-23 11:31N 49°36' W 000°60'0 0.0
2017-Feb-23 10:28N 49°36' W 000°60'0 0.0
2017-Feb-23 09:31N 49°36' W 000°60'0 0.1
2017-Feb-23 08:22N 49°36' W 000°60'0 0.1
2017-Feb-23 07:31N 49°36' W 000°60'0 0.0
2017-Feb-23 06:25N 49°36' W 000°60'0 0.0
2017-Feb-23 05:25N 49°36' W 000°60'0 0.0
2017-Feb-23 04:22N 49°36' W 000°60'0 0.0
2017-Feb-23 03:31N 49°36' W 000°60'0 0.0
2017-Feb-23 02:31N 49°36' W 000°60'0 0.0
2017-Feb-23 01:31N 49°36' W 000°60'0 0.0
2017-Feb-23 00:28N 49°36' W 000°60'0 0.0
2017-Feb-22 23:31N 49°36' W 000°60'0 0.0
2017-Feb-22 22:25N 49°36' W 000°60'0 0.0
2017-Feb-22 21:31N 49°36' W 000°60'0 0.0
2017-Feb-22 20:31N 49°36' W 000°60'0 0.0
2017-Feb-22 19:31N 49°36' W 000°60'0 0.3
2017-Feb-22 18:33N 49°36' W 000°59'12 9.5
2017-Feb-22 17:20N 49°32' W 000°42'810.4
2017-Feb-22 16:33N 49°31' W 000°30'1110.9
2017-Feb-22 15:34N 49°31' W 000°13'1010.4
2017-Feb-22 14:33N 49°27' E 000°02'1211.8
2017-Feb-22 13:33N 49°26' E 000°20'10 9.8
2017-Feb-22 12:33N 49°26' E 000°35'9 7.7
2017-Feb-22 11:24N 49°29' E 000°48'  
Track history (hours):
 
Tides and Currents Weather Stations Pressure Air Temp Water Temp Dewpoint Dewpoint Depression Visibility Wind Speed Wind Dir Waves Ship Positions

Stella Prima

Last reported at 2017-Mar-01 17:04 UTC. Time now 2017-Mar-25 13:43 UTC.
Position N 27°17' W 015°25'.
Warning: this ship's position is 23 days out of date.

Length 100 m; beam 21 m.

Type: Cargo ship. MMSI: 246460000.

Date/timePositionNaut miles runAvg speedWind from/ knotsBaromVisibWave heightAir tempDewpointWater temp
2017-Mar-01 17:04N 27°17' W 015°25'2114.0
2017-Mar-01 15:33N 27°38' W 015°19'1413.6
2017-Mar-01 14:33N 27°51' W 015°15'1312.8
2017-Mar-01 13:33N 28°03' W 015°21'7 6.8
2017-Mar-01 12:33N 28°09' W 015°25'0 0.0
2017-Mar-01 11:33N 28°09' W 015°25'0 0.0
2017-Mar-01 10:33N 28°09' W 015°25'0 0.0
2017-Mar-01 09:33N 28°09' W 015°25'0 0.0
2017-Mar-01 08:34N 28°09' W 015°25'0 0.0
2017-Mar-01 07:33N 28°09' W 015°25'0 0.0
2017-Mar-01 06:33N 28°09' W 015°25'0 0.0
2017-Mar-01 05:33N 28°09' W 015°25'0 0.0
2017-Mar-01 04:33N 28°09' W 015°25'0 0.0
2017-Mar-01 03:33N 28°09' W 015°25'0 0.0
2017-Mar-01 02:33N 28°09' W 015°25'0 0.0
2017-Mar-01 01:33N 28°09' W 015°25'0 0.0
2017-Mar-01 00:34N 28°09' W 015°25'0 0.0
2017-Feb-28 23:34N 28°09' W 015°25'0 0.0
2017-Feb-28 22:33N 28°09' W 015°25'0 0.0
2017-Feb-28 21:33N 28°09' W 015°25'0 0.0
2017-Feb-28 20:33N 28°09' W 015°25'0 0.1
2017-Feb-28 19:34N 28°09' W 015°25'2 2.3
2017-Feb-28 18:34N 28°08' W 015°23'7 7.4
2017-Feb-28 17:33N 28°15' W 015°20'1313.5
2017-Feb-28 16:33N 28°28' W 015°17'1413.6
2017-Feb-28 15:33N 28°41' W 015°13'1413.7
2017-Feb-28 14:32N 28°55' W 015°09'5913.5
2017-Feb-28 10:10N 29°52' W 014°52'  
2017-Feb-24 05:04N 49°46' W 003°25'510.0
2017-Feb-24 04:33N 49°49' W 003°19'1110.4
2017-Feb-24 03:32N 49°54' W 003°05'1110.9
2017-Feb-24 02:33N 49°59' W 002°50'69 9.2
2017-Feb-23 19:06N 49°41' W 001°07'5 9.5
2017-Feb-23 18:33N 49°37' W 001°01'2 0.4
2017-Feb-23 13:19N 49°36' W 000°59'0 0.1
2017-Feb-23 12:28N 49°36' W 000°59'0 0.0
2017-Feb-23 11:31N 49°36' W 000°60'0 0.0
2017-Feb-23 10:28N 49°36' W 000°60'0 0.0
2017-Feb-23 09:31N 49°36' W 000°60'0 0.1
2017-Feb-23 08:22N 49°36' W 000°60'0 0.1
2017-Feb-23 07:31N 49°36' W 000°60'0 0.0
2017-Feb-23 06:25N 49°36' W 000°60'0 0.0
2017-Feb-23 05:25N 49°36' W 000°60'0 0.0
2017-Feb-23 04:22N 49°36' W 000°60'0 0.0
2017-Feb-23 03:31N 49°36' W 000°60'0 0.0
2017-Feb-23 02:31N 49°36' W 000°60'0 0.0
2017-Feb-23 01:31N 49°36' W 000°60'0 0.0
2017-Feb-23 00:28N 49°36' W 000°60'0 0.0
2017-Feb-22 23:31N 49°36' W 000°60'0 0.0
2017-Feb-22 22:25N 49°36' W 000°60'0 0.0
2017-Feb-22 21:31N 49°36' W 000°60'0 0.0
2017-Feb-22 20:31N 49°36' W 000°60'0 0.0
2017-Feb-22 19:31N 49°36' W 000°60'0 0.3
2017-Feb-22 18:33N 49°36' W 000°59'12 9.5
2017-Feb-22 17:20N 49°32' W 000°42'810.4
2017-Feb-22 16:33N 49°31' W 000°30'1110.9
2017-Feb-22 15:34N 49°31' W 000°13'1010.4
2017-Feb-22 14:33N 49°27' E 000°02'1211.8
2017-Feb-22 13:33N 49°26' E 000°20'10 9.8
2017-Feb-22 12:33N 49°26' E 000°35'9 7.7
2017-Feb-22 11:24N 49°29' E 000°48'  

Dump ship's entire track history